Time;durP1;ratioP1;P1;durP2;ratioP2;P2;SDS_P1;SDS_P2;PMS_P1;PMS_P2;Temp;Humidity;BMP_temperature;BMP_pressure;BME280_temperature;BME280_humidity;BME280_pressure;Samples;Min_cycle;Max_cycle;Signal;HPM_P1;HPM_P2
2023/04/06 00:00:17;;;;;;;7.22;4.00;;;-0.10;99.90;;;;;;5055139;28;20060;-83
2023/04/06 00:02:54;;;;;;;5.55;3.35;;;-0.10;99.90;;;;;;5054298;28;20124;-82
2023/04/06 00:05:30;;;;;;;8.38;4.47;;;-0.10;99.90;;;;;;5054861;28;20036;-82
2023/04/06 00:07:59;;;;;;;8.00;4.22;;;-0.20;99.90;;;;;;5055047;28;20036;-82
2023/04/06 00:10:26;;;;;;;7.22;4.32;;;-0.20;99.90;;;;;;5055357;28;20055;-82
2023/04/06 00:12:53;;;;;;;8.70;4.32;;;-0.20;99.90;;;;;;5054839;28;20017;-85
2023/04/06 00:15:20;;;;;;;8.27;3.78;;;-0.30;99.90;;;;;;5038724;28;20081;-82
2023/04/06 00:17:45;;;;;;;5.97;3.90;;;-0.30;99.90;;;;;;5021808;28;20029;-82
2023/04/06 00:20:12;;;;;;;6.05;3.95;;;-0.30;99.90;;;;;;5038506;28;20422;-82
2023/04/06 00:22:39;;;;;;;6.15;3.70;;;-0.30;99.90;;;;;;5037998;28;20118;-82
2023/04/06 00:25:05;;;;;;;8.98;4.00;;;-0.30;99.90;;;;;;5054998;28;20048;-82
2023/04/06 00:27:33;;;;;;;7.00;3.95;;;-0.30;99.90;;;;;;5055141;28;20040;-82
2023/04/06 00:29:59;;;;;;;8.65;4.18;;;-0.30;99.90;;;;;;5054424;28;20482;-82
2023/04/06 00:32:26;;;;;;;6.70;3.85;;;-0.30;99.90;;;;;;5020895;28;20123;-82
2023/04/06 00:34:52;;;;;;;6.43;3.88;;;-0.30;99.90;;;;;;5022252;28;20029;-82
2023/04/06 00:37:19;;;;;;;5.90;3.40;;;-0.20;99.90;;;;;;5022079;28;20029;-83
2023/04/06 00:39:46;;;;;;;7.72;4.20;;;-0.20;99.90;;;;;;5054938;28;20041;-83
2023/04/06 00:42:15;;;;;;;9.27;4.00;;;-0.30;99.90;;;;;;5037261;28;20029;-83
2023/04/06 00:45:17;;;;;;;8.68;3.97;;;-0.30;99.90;;;;;;5054963;28;20028;-83
2023/04/06 00:47:51;;;;;;;7.30;3.88;;;-0.30;99.90;;;;;;5041371;28;20066;-83
2023/04/06 00:51:12;;;;;;;6.28;3.63;;;-0.30;99.90;;;;;;5037655;28;20052;-83
2023/04/06 00:53:51;;;;;;;6.80;3.90;;;-0.40;99.90;;;;;;5054457;28;20120;-83
2023/04/06 00:56:23;;;;;;;6.72;4.38;;;-0.40;99.90;;;;;;5053053;28;20049;-83
2023/04/06 00:58:49;;;;;;;6.43;3.80;;;-0.40;99.90;;;;;;5055801;28;20387;-82
2023/04/06 01:01:15;;;;;;;12.98;4.28;;;-0.50;99.90;;;;;;5063201;28;20426;-82
2023/04/06 01:03:44;;;;;;;8.57;4.00;;;-0.60;99.90;;;;;;5075885;28;20112;-82
2023/04/06 01:06:12;;;;;;;7.95;4.40;;;-0.70;99.90;;;;;;5056515;28;20025;-82
2023/04/06 01:08:38;;;;;;;6.28;3.65;;;-0.70;99.90;;;;;;5059500;28;20016;-82
2023/04/06 01:11:08;;;;;;;6.53;3.92;;;-0.80;99.90;;;;;;5075726;28;20037;-82
2023/04/06 01:13:34;;;;;;;7.30;4.60;;;-0.70;99.90;;;;;;5074750;28;20025;-82
2023/04/06 01:15:59;;;;;;;10.43;4.93;;;-0.70;99.90;;;;;;5067961;28;20032;-83
2023/04/06 01:18:26;;;;;;;9.18;4.88;;;-0.60;99.90;;;;;;5059810;28;20024;-83
2023/04/06 01:20:52;;;;;;;8.23;4.85;;;-0.60;99.90;;;;;;5059052;28;20048;-83
2023/04/06 01:23:24;;;;;;;8.93;4.72;;;-0.60;99.90;;;;;;5041374;28;20036;-83
2023/04/06 01:26:13;;;;;;;;;;;;;;;;;;;;;
2023/04/06 01:28:52;;;;;;;8.57;4.53;;;-0.60;99.90;;;;;;5059615;28;20108;-83
2023/04/06 01:34:16;;;;;;;6.82;4.15;;;-0.70;99.90;;;;;;5120016;22;20040;-83
2023/04/06 01:36:42;;;;;;;7.55;4.03;;;-0.70;99.90;;;;;;5100257;28;20028;-83
2023/04/06 01:39:08;;;;;;;7.43;4.35;;;-0.70;99.90;;;;;;5098575;28;20150;-83
2023/04/06 01:41:34;;;;;;;6.68;4.05;;;-0.70;99.90;;;;;;5080391;28;20020;-83
2023/04/06 01:44:00;;;;;;;7.97;4.38;;;-0.70;99.90;;;;;;5115481;28;20019;-83
2023/04/06 01:46:26;;;;;;;7.97;4.43;;;-0.70;99.90;;;;;;5080494;28;20118;-83
2023/04/06 01:48:52;;;;;;;10.77;4.63;;;-0.70;99.90;;;;;;5080665;28;20036;-83
2023/04/06 01:51:17;;;;;;;11.07;6.13;;;-0.70;99.90;;;;;;5080738;28;20024;-83
2023/04/06 01:53:43;;;;;;;12.05;6.93;;;-0.70;99.90;;;;;;5115794;28;20546;-83
2023/04/06 01:56:09;;;;;;;13.20;7.65;;;-0.70;99.90;;;;;;5115318;28;20059;-83
2023/04/06 01:58:35;;;;;;;14.32;7.53;;;-0.70;99.90;;;;;;5097056;28;20031;-83
2023/04/06 02:01:01;;;;;;;11.63;6.93;;;-0.80;99.90;;;;;;5079757;28;20071;-83
2023/04/06 02:03:27;;;;;;;12.98;5.88;;;-0.80;99.90;;;;;;5063196;28;20046;-83
2023/04/06 02:05:52;;;;;;;11.57;6.50;;;-0.80;99.90;;;;;;5080159;28;20027;-83
2023/04/06 02:08:18;;;;;;;11.80;5.70;;;-0.80;99.90;;;;;;5079731;28;20058;-82
2023/04/06 02:10:44;;;;;;;14.60;7.43;;;-0.80;99.90;;;;;;5114704;28;20024;-82
2023/04/06 02:13:09;;;;;;;16.67;7.13;;;-0.80;99.90;;;;;;5079596;28;20038;-83
2023/04/06 02:15:35;;;;;;;14.05;7.95;;;-0.90;99.90;;;;;;5114491;28;20515;-83
2023/04/06 02:18:01;;;;;;;21.23;12.63;;;-1.00;99.90;;;;;;5097390;28;20052;-83
2023/04/06 02:20:27;;;;;;;22.67;12.23;;;-1.10;99.90;;;;;;5082509;28;20031;-84
2023/04/06 02:22:52;;;;;;;19.85;11.35;;;-1.10;99.90;;;;;;5099967;28;20023;-84
2023/04/06 02:25:18;;;;;;;20.15;11.95;;;-1.10;99.90;;;;;;5083094;28;20032;-84
2023/04/06 02:27:44;;;;;;;16.90;11.23;;;-1.20;99.90;;;;;;5099255;28;20499;-84
2023/04/06 02:30:10;;;;;;;15.32;9.55;;;-1.20;99.90;;;;;;5099620;28;20102;-84
2023/04/06 02:32:35;;;;;;;14.27;10.10;;;-1.30;99.90;;;;;;5098951;28;20053;-84
2023/04/06 02:35:01;;;;;;;18.98;14.13;;;-1.30;99.90;;;;;;5066139;28;20118;-84
2023/04/06 02:37:27;;;;;;;16.63;13.68;;;-1.30;99.90;;;;;;5082049;28;20031;-84
2023/04/06 02:39:53;;;;;;;20.30;14.00;;;-1.20;99.90;;;;;;5064992;28;20027;-84
2023/04/06 02:42:18;;;;;;;19.85;15.20;;;-1.20;99.90;;;;;;5081859;28;20039;-83
2023/04/06 02:44:44;;;;;;;14.18;10.93;;;-1.20;99.90;;;;;;5082135;28;20501;-84
2023/04/06 02:47:10;;;;;;;14.38;9.40;;;-1.20;99.90;;;;;;5082826;28;20097;-83
2023/04/06 02:49:36;;;;;;;10.77;8.07;;;-1.20;99.90;;;;;;5064869;28;20032;-83
2023/04/06 02:52:02;;;;;;;9.63;7.30;;;-1.30;99.90;;;;;;5084252;28;20032;-83
2023/04/06 02:54:28;;;;;;;10.82;6.90;;;-1.30;99.90;;;;;;5131966;28;20028;-82
2023/04/06 02:56:53;;;;;;;8.95;5.82;;;-1.30;99.90;;;;;;5102138;28;20366;-83
2023/04/06 02:59:19;;;;;;;10.60;5.78;;;-1.40;99.90;;;;;;5119126;28;20039;-83
2023/04/06 03:01:45;;;;;;;8.55;5.32;;;-1.50;99.90;;;;;;5082537;28;20028;-83
2023/04/06 03:04:11;;;;;;;11.88;5.97;;;-1.60;99.90;;;;;;5099581;28;20028;-82
2023/04/06 03:06:37;;;;;;;10.35;5.78;;;-1.70;99.90;;;;;;5082414;28;20034;-82
2023/04/06 03:09:02;;;;;;;14.25;7.47;;;-1.80;99.90;;;;;;5099093;28;20031;-83
2023/04/06 03:11:28;;;;;;;15.07;8.00;;;-1.90;99.90;;;;;;5082414;28;20511;-83
2023/04/06 03:13:54;;;;;;;17.85;8.75;;;-1.90;99.90;;;;;;5098950;28;20123;-83
2023/04/06 03:16:20;;;;;;;18.50;8.55;;;-2.00;99.90;;;;;;5082343;28;20036;-82
2023/04/06 03:18:46;;;;;;;16.90;8.10;;;-1.90;99.90;;;;;;5099049;28;20027;-83
2023/04/06 03:21:14;;;;;;;9.50;5.75;;;-1.90;99.90;;;;;;5082188;28;20032;-83
2023/04/06 03:23:41;;;;;;;10.38;5.72;;;-1.80;99.90;;;;;;5082741;28;20077;-82
2023/04/06 03:26:06;;;;;;;9.68;5.07;;;-1.80;99.90;;;;;;5099437;28;20019;-83
2023/04/06 03:28:32;;;;;;;8.88;5.07;;;-1.80;99.90;;;;;;5117436;28;20508;-82
2023/04/06 03:30:58;;;;;;;9.57;5.13;;;-1.80;99.90;;;;;;5117468;28;20101;-82
2023/04/06 03:33:26;;;;;;;8.52;5.03;;;-1.80;99.90;;;;;;5117037;28;20488;-82
2023/04/06 03:35:53;;;;;;;7.63;4.70;;;-1.80;99.90;;;;;;5099477;28;20023;-82
2023/04/06 03:38:19;;;;;;;8.93;5.07;;;-1.80;99.90;;;;;;5099246;28;20031;-83
2023/04/06 03:40:44;;;;;;;10.48;6.20;;;-1.80;99.90;;;;;;5098704;28;20076;-82
2023/04/06 03:43:10;;;;;;;13.02;7.40;;;-1.80;99.90;;;;;;5082069;28;20031;-83
2023/04/06 03:45:36;;;;;;;20.67;10.00;;;-1.80;99.90;;;;;;5098931;28;20523;-83
2023/04/06 03:48:01;;;;;;;23.92;12.82;;;-1.80;99.90;;;;;;5081688;28;20059;-83
2023/04/06 03:50:27;;;;;;;22.30;12.63;;;-1.70;99.90;;;;;;5081690;28;20447;-83
2023/04/06 03:52:53;;;;;;;21.23;12.23;;;-1.70;99.90;;;;;;5081596;28;20409;-83
2023/04/06 03:55:19;;;;;;;21.88;11.88;;;-1.70;99.90;;;;;;5081620;28;20063;-82
2023/04/06 03:57:44;;;;;;;21.45;11.60;;;-1.70;99.90;;;;;;5064917;28;20028;-83
2023/04/06 04:00:11;;;;;;;33.05;13.90;;;-1.70;99.90;;;;;;5065083;28;20027;-83
2023/04/06 04:02:37;;;;;;;15.40;8.43;;;-1.70;99.90;;;;;;5081718;28;20057;-83
2023/04/06 04:05:03;;;;;;;11.25;6.80;;;-1.80;99.90;;;;;;5081605;28;20388;-83
2023/04/06 04:07:29;;;;;;;11.85;6.88;;;-1.90;99.90;;;;;;5081411;28;20393;-83
2023/04/06 04:09:54;;;;;;;11.73;6.00;;;-2.00;99.90;;;;;;5064660;28;20032;-82
2023/04/06 04:12:20;;;;;;;9.75;5.93;;;-2.10;99.90;;;;;;5077788;28;20472;-82
2023/04/06 04:14:46;;;;;;;11.32;6.00;;;-2.20;99.90;;;;;;5077972;28;20036;-82
2023/04/06 04:17:12;;;;;;;9.73;5.63;;;-2.20;99.90;;;;;;5090139;28;20106;-81
2023/04/06 04:19:37;;;;;;;9.55;5.97;;;-2.30;99.90;;;;;;5064814;28;20127;-82
2023/04/06 04:22:04;;;;;;;18.40;9.27;;;-2.30;99.90;;;;;;5081147;28;20489;-82
2023/04/06 04:24:30;;;;;;;14.38;8.07;;;-2.30;99.90;;;;;;5081371;28;20055;-82
2023/04/06 04:26:56;;;;;;;11.82;6.43;;;-2.30;99.90;;;;;;5097909;28;20058;-82
2023/04/06 04:29:22;;;;;;;15.10;7.18;;;-2.30;99.90;;;;;;5097752;28;20035;-82
2023/04/06 04:31:48;;;;;;;15.90;6.82;;;-2.40;99.90;;;;;;5081230;28;20035;-82
2023/04/06 04:34:15;;;;;;;13.23;6.63;;;-2.50;99.90;;;;;;5080851;28;20477;-82
2023/04/06 04:36:44;;;;;;;12.35;9.27;;;-2.50;99.90;;;;;;5116087;28;20441;-82
2023/04/06 04:39:09;;;;;;;13.20;8.75;;;-2.60;99.90;;;;;;5081513;28;20031;-82
2023/04/06 04:41:35;;;;;;;16.02;8.45;;;-2.60;99.90;;;;;;5097679;28;20032;-82
2023/04/06 04:44:00;;;;;;;12.90;8.35;;;-2.70;99.90;;;;;;5065139;28;20023;-82
2023/04/06 04:46:27;;;;;;;17.35;10.05;;;-2.70;99.90;;;;;;5097636;28;20031;-82
2023/04/06 04:48:53;;;;;;;17.00;10.45;;;-2.70;99.90;;;;;;5115867;28;20031;-82
2023/04/06 04:51:19;;;;;;;16.95;10.40;;;-2.60;99.90;;;;;;5080654;28;20086;-82
2023/04/06 04:53:45;;;;;;;13.98;9.20;;;-2.60;99.90;;;;;;5115820;28;20385;-82
2023/04/06 04:56:11;;;;;;;12.70;8.20;;;-2.50;99.90;;;;;;5097315;28;20027;-76
2023/04/06 04:58:36;;;;;;;14.88;8.95;;;-2.60;99.90;;;;;;5080182;28;20046;-76
2023/04/06 05:01:02;;;;;;;15.70;9.07;;;-2.60;99.90;;;;;;5097512;28;20030;-77
2023/04/06 05:03:28;;;;;;;19.13;9.38;;;-2.50;99.90;;;;;;5115385;28;20496;-77
2023/04/06 05:05:54;;;;;;;15.02;9.18;;;-2.50;99.90;;;;;;5080558;28;20080;-76
2023/04/06 05:08:20;;;;;;;17.13;8.15;;;-2.50;99.90;;;;;;5097430;28;20393;-77
2023/04/06 05:10:46;;;;;;;16.35;9.82;;;-2.50;99.90;;;;;;5080154;28;20028;-76
2023/04/06 05:13:12;;;;;;;16.60;8.95;;;-2.50;99.90;;;;;;5114395;28;20054;-77
2023/04/06 05:15:39;;;;;;;16.88;8.43;;;-2.50;99.90;;;;;;5115169;28;20032;-77
2023/04/06 05:18:05;;;;;;;12.35;7.95;;;-2.50;99.90;;;;;;5114129;28;20084;-77
2023/04/06 05:20:31;;;;;;;11.77;7.13;;;-2.50;99.90;;;;;;5114622;28;20035;-76
2023/04/06 05:22:57;;;;;;;20.92;10.68;;;-2.60;99.90;;;;;;5079786;28;20027;-77
2023/04/06 05:25:22;;;;;;;43.78;20.65;;;-2.60;99.90;;;;;;5078924;28;20104;-76
2023/04/06 05:27:48;;;;;;;50.95;23.83;;;-2.60;99.90;;;;;;5097159;28;20023;-79
2023/04/06 05:30:14;;;;;;;42.05;21.02;;;-2.60;99.90;;;;;;5109722;28;20509;-77
2023/04/06 05:32:40;;;;;;;26.48;13.68;;;-2.50;99.90;;;;;;5092325;28;20118;-77
2023/04/06 05:35:06;;;;;;;14.20;8.40;;;-2.50;99.90;;;;;;5092736;28;20166;-77
2023/04/06 05:37:32;;;;;;;11.85;7.03;;;-2.40;99.90;;;;;;5075071;28;20393;-77
2023/04/06 05:39:57;;;;;;;12.32;6.32;;;-2.40;99.90;;;;;;5074804;28;20489;-77
2023/04/06 05:42:23;;;;;;;11.38;6.22;;;-2.40;99.90;;;;;;5076216;28;20020;-76
2023/04/06 05:44:49;;;;;;;12.52;6.32;;;-2.30;99.90;;;;;;5076167;28;20020;-77
2023/04/06 05:47:15;;;;;;;10.55;6.25;;;-2.30;99.90;;;;;;5076576;28;20070;-77
2023/04/06 05:49:43;;;;;;;11.23;6.22;;;-2.30;99.90;;;;;;5095134;28;20462;-77
2023/04/06 05:52:10;;;;;;;11.27;6.35;;;-2.20;99.90;;;;;;5094819;28;20036;-77
2023/04/06 05:54:36;;;;;;;10.50;6.18;;;-2.20;99.90;;;;;;5076017;28;20024;-77
2023/04/06 05:57:03;;;;;;;12.45;6.82;;;-2.10;99.90;;;;;;5094869;28;20077;-77
2023/04/06 05:59:30;;;;;;;11.07;6.55;;;-2.00;99.90;;;;;;5093790;28;20477;-77
2023/04/06 06:01:56;;;;;;;13.38;7.35;;;-2.00;99.90;;;;;;5094498;28;20016;-77
2023/04/06 06:04:22;;;;;;;12.02;7.32;;;-1.90;99.90;;;;;;5076749;28;20162;-77
2023/04/06 06:06:47;;;;;;;13.07;6.72;;;-1.80;99.90;;;;;;5076033;28;20020;-77
2023/04/06 06:09:13;;;;;;;14.93;8.18;;;-1.80;99.90;;;;;;5094600;28;20085;-77
2023/04/06 06:11:39;;;;;;;15.55;8.38;;;-1.70;99.90;;;;;;5094410;28;20085;-77
2023/04/06 06:14:05;;;;;;;14.32;8.10;;;-1.60;99.90;;;;;;5076237;28;20397;-77
2023/04/06 06:16:30;;;;;;;14.45;7.47;;;-1.50;99.90;;;;;;5076994;28;20545;-77
2023/04/06 06:18:56;;;;;;;14.73;8.73;;;-1.40;99.90;;;;;;5094080;28;20046;-77
2023/04/06 06:21:22;;;;;;;15.40;8.50;;;-1.30;99.90;;;;;;5094687;28;20031;-77
2023/04/06 06:23:49;;;;;;;13.18;8.10;;;-1.20;99.90;;;;;;5075979;28;20036;-77
2023/04/06 06:26:15;;;;;;;19.00;9.45;;;-1.20;99.90;;;;;;5094057;28;20047;-77
2023/04/06 06:28:40;;;;;;;17.73;8.85;;;-1.10;99.90;;;;;;5059154;28;20064;-76
2023/04/06 06:31:07;;;;;;;14.10;7.18;;;-1.10;99.90;;;;;;5077833;28;20124;-77
2023/04/06 06:33:32;;;;;;;15.35;8.55;;;-1.10;99.90;;;;;;5097719;28;20040;-77
2023/04/06 06:35:58;;;;;;;14.40;8.20;;;-1.00;99.90;;;;;;5063013;28;20070;-77
2023/04/06 06:38:27;;;;;;;15.85;9.02;;;-1.00;99.90;;;;;;5079782;28;20070;-77
2023/04/06 06:40:52;;;;;;;13.70;8.43;;;-0.90;99.90;;;;;;5079983;28;20028;-77
2023/04/06 06:43:18;;;;;;;14.60;8.23;;;-0.90;99.90;;;;;;5097691;28;20027;-77
2023/04/06 06:45:44;;;;;;;15.82;8.45;;;-0.80;99.90;;;;;;5079517;28;20177;-77
2023/04/06 06:48:10;;;;;;;13.07;8.35;;;-0.70;99.90;;;;;;5079442;28;20101;-77
2023/04/06 06:50:36;;;;;;;16.58;8.10;;;-0.60;99.90;;;;;;5097590;28;20085;-77
2023/04/06 06:53:02;;;;;;;15.88;9.05;;;-0.60;99.90;;;;;;5097884;28;20036;-77
2023/04/06 06:55:28;;;;;;;12.88;8.18;;;-0.50;99.90;;;;;;5097535;28;20032;-76
2023/04/06 06:57:54;;;;;;;19.13;8.93;;;-0.40;99.90;;;;;;5079461;28;20026;-76
2023/04/06 07:00:22;;;;;;;12.68;7.88;;;-0.40;99.90;;;;;;5097298;28;20486;-76
2023/04/06 07:02:48;;;;;;;12.18;7.85;;;-0.30;99.90;;;;;;5079627;28;20500;-76
2023/04/06 07:05:15;;;;;;;13.52;8.30;;;-0.20;99.90;;;;;;5097367;28;20020;-76
2023/04/06 07:07:41;;;;;;;17.40;9.27;;;-0.20;99.90;;;;;;5078913;28;20024;-76
2023/04/06 07:10:08;;;;;;;15.60;7.85;;;-0.20;99.90;;;;;;5078753;28;20028;-76
2023/04/06 07:12:34;;;;;;;13.43;8.40;;;-0.10;99.90;;;;;;5096824;28;20024;-76
2023/04/06 07:15:00;;;;;;;17.70;8.05;;;-0.10;99.90;;;;;;5062135;28;20528;-76
2023/04/06 07:17:26;;;;;;;13.85;7.68;;;0.00;99.90;;;;;;5097444;28;20032;-76
2023/04/06 07:19:52;;;;;;;12.50;7.78;;;0.10;99.90;;;;;;5096759;28;20035;-76
2023/04/06 07:22:17;;;;;;;14.55;8.30;;;0.20;99.90;;;;;;5078693;28;20028;-76
2023/04/06 07:24:43;;;;;;;13.75;8.23;;;0.30;99.90;;;;;;5061876;28;20032;-76
2023/04/06 07:27:09;;;;;;;13.65;7.60;;;0.50;99.90;;;;;;5096805;28;20191;-76
2023/04/06 07:29:35;;;;;;;12.70;7.35;;;0.60;99.90;;;;;;5062097;28;20033;-76
2023/04/06 07:32:00;;;;;;;14.95;8.05;;;0.80;99.90;;;;;;5078522;28;20132;-76
2023/04/06 07:34:26;;;;;;;12.98;8.25;;;1.00;99.90;;;;;;5096440;28;20044;-76
2023/04/06 07:36:53;;;;;;;12.18;7.40;;;1.10;99.90;;;;;;5078550;28;20055;-76
2023/04/06 07:39:19;;;;;;;13.15;7.80;;;1.30;99.90;;;;;;5078746;28;20454;-76
2023/04/06 07:41:45;;;;;;;13.27;7.85;;;1.50;99.90;;;;;;5077845;28;20031;-76
2023/04/06 07:44:11;;;;;;;13.15;7.05;;;1.70;99.90;;;;;;5096924;28;20024;-76
2023/04/06 07:46:37;;;;;;;15.32;8.60;;;1.80;99.90;;;;;;5078526;28;20059;-76
2023/04/06 07:49:03;;;;;;;13.32;8.32;;;2.00;99.90;;;;;;5078447;28;20024;-76
2023/04/06 07:51:28;;;;;;;12.93;7.90;;;2.10;99.90;;;;;;5078240;28;20051;-76
2023/04/06 07:53:54;;;;;;;10.00;6.80;;;2.20;99.90;;;;;;5061336;28;20024;-76
2023/04/06 07:56:20;;;;;;;15.02;7.95;;;2.20;99.90;;;;;;5080191;28;20058;-77
2023/04/06 07:58:46;;;;;;;13.95;6.93;;;2.30;99.90;;;;;;5097178;28;20055;-77
2023/04/06 08:01:12;;;;;;;9.35;6.53;;;2.40;99.90;;;;;;5096845;28;20028;-77
2023/04/06 08:03:38;;;;;;;10.52;6.82;;;2.50;99.90;;;;;;5078233;28;20020;-77
2023/04/06 08:06:05;;;;;;;14.50;7.82;;;2.60;99.90;;;;;;5096233;28;20497;-77
2023/04/06 08:08:30;;;;;;;12.48;7.75;;;2.80;99.90;;;;;;5096706;28;20032;-77
2023/04/06 08:10:56;;;;;;;17.92;8.05;;;2.90;99.90;;;;;;5096186;28;20035;-77
2023/04/06 08:13:22;;;;;;;13.00;7.80;;;3.10;99.90;;;;;;5078316;28;20105;-77
2023/04/06 08:15:47;;;;;;;15.32;7.70;;;3.30;99.90;;;;;;5078201;28;20032;-77
2023/04/06 08:18:13;;;;;;;11.02;6.90;;;3.50;99.90;;;;;;5096387;28;20451;-77
2023/04/06 08:20:39;;;;;;;9.15;6.50;;;3.70;99.90;;;;;;5078170;28;20056;-77
2023/04/06 08:23:06;;;;;;;13.02;7.32;;;3.90;99.90;;;;;;5096054;28;20085;-77
2023/04/06 08:25:33;;;;;;;11.77;6.30;;;4.00;99.90;;;;;;5096206;28;20025;-77
2023/04/06 08:27:59;;;;;;;11.82;7.00;;;4.10;99.50;;;;;;5096160;28;20489;-77
2023/04/06 08:30:25;;;;;;;9.43;6.63;;;4.20;99.60;;;;;;5078362;28;20058;-77
2023/04/06 08:32:51;;;;;;;11.20;6.82;;;4.40;98.90;;;;;;5096018;28;20028;-77
2023/04/06 08:35:16;;;;;;;14.82;7.70;;;4.50;99.00;;;;;;5097038;28;20032;-77
2023/04/06 08:37:42;;;;;;;15.02;7.85;;;4.70;98.60;;;;;;5096175;28;20028;-77
2023/04/06 08:40:08;;;;;;;11.43;7.38;;;4.90;98.60;;;;;;5078144;28;20032;-77
2023/04/06 08:42:40;;;;;;;10.38;7.13;;;5.10;99.00;;;;;;5096032;28;20423;-77
2023/04/06 08:45:06;;;;;;;15.25;7.82;;;5.30;97.60;;;;;;5096264;28;20068;-77
2023/04/06 08:47:33;;;;;;;13.70;7.55;;;5.40;95.60;;;;;;5096066;28;20027;-77
2023/04/06 08:50:04;;;;;;;11.63;7.32;;;5.60;95.10;;;;;;5061541;28;20032;-77
2023/04/06 08:52:32;;;;;;;14.48;7.38;;;5.80;95.20;;;;;;5077747;28;20504;-77
2023/04/06 08:54:57;;;;;;;9.27;6.70;;;6.10;90.40;;;;;;5077208;28;20050;-77
2023/04/06 08:57:24;;;;;;;9.32;6.57;;;6.30;90.80;;;;;;5077909;28;20020;-77
2023/04/06 08:59:51;;;;;;;9.10;6.78;;;6.50;86.40;;;;;;5077914;28;20024;-77
2023/04/06 09:02:19;;;;;;;10.55;6.72;;;6.50;83.90;;;;;;5078017;28;20103;-77
2023/04/06 09:04:54;;;;;;;10.73;7.05;;;6.60;82.20;;;;;;5077585;28;20108;-77
2023/04/06 09:07:21;;;;;;;9.02;6.55;;;6.70;81.70;;;;;;5095680;28;20016;-77
2023/04/06 09:09:51;;;;;;;11.52;6.65;;;6.60;77.20;;;;;;5095420;28;20063;-77
2023/04/06 09:12:28;;;;;;;10.70;6.72;;;6.60;77.80;;;;;;5078030;28;20032;-77
2023/04/06 09:14:55;;;;;;;11.07;7.22;;;6.70;80.40;;;;;;5095480;28;20470;-77
2023/04/06 09:17:33;;;;;;;9.90;6.45;;;6.80;80.00;;;;;;5077043;28;20086;-77
2023/04/06 09:20:00;;;;;;;10.10;6.18;;;6.90;78.00;;;;;;5060433;28;20059;-77
2023/04/06 09:22:41;;;;;;;10.10;6.18;;;6.90;77.30;;;;;;5094894;28;20466;-77
2023/04/06 09:25:08;;;;;;;;;;;6.90;76.40;;;;;;5077104;28;20480;-77
2023/04/06 09:27:36;;;;;;;9.60;6.25;;;6.90;77.00;;;;;;5076814;28;20373;-77
2023/04/06 09:30:13;;;;;;;10.50;5.85;;;6.90;75.50;;;;;;5094763;28;20059;-77
2023/04/06 09:32:46;;;;;;;10.65;6.32;;;6.90;76.00;;;;;;5094490;28;20028;-77
2023/04/06 09:35:12;;;;;;;10.20;6.78;;;7.00;74.80;;;;;;5076656;28;20078;-77
2023/04/06 09:37:38;;;;;;;8.52;6.70;;;7.00;76.40;;;;;;5095019;28;20393;-77
2023/04/06 09:40:08;;;;;;;11.45;6.60;;;7.00;76.80;;;;;;5095557;28;20024;-77
2023/04/06 09:42:34;;;;;;;11.93;6.78;;;7.00;74.00;;;;;;5095160;28;20028;-77
2023/04/06 09:45:01;;;;;;;11.63;6.70;;;7.10;74.30;;;;;;5076726;28;20487;-77
2023/04/06 09:47:27;;;;;;;9.43;5.85;;;7.10;74.50;;;;;;5094533;28;20024;-77
2023/04/06 09:49:58;;;;;;;11.13;6.47;;;7.10;72.20;;;;;;5059732;28;20490;-77
2023/04/06 09:52:32;;;;;;;10.40;6.43;;;7.10;71.20;;;;;;5076663;28;20052;-77
2023/04/06 09:55:05;;;;;;;10.88;7.85;;;7.10;72.30;;;;;;5076278;28;20378;-77
2023/04/06 09:57:49;;;;;;;10.80;6.65;;;7.10;71.60;;;;;;5076407;28;20474;-77
2023/04/06 10:00:20;;;;;;;8.95;5.75;;;7.30;73.10;;;;;;5076318;28;20031;-77
2023/04/06 10:03:11;;;;;;;9.80;6.40;;;7.30;71.50;;;;;;5076799;28;20024;-77
2023/04/06 10:05:50;;;;;;;9.63;6.05;;;7.40;72.80;;;;;;5076661;28;20397;-77
2023/04/06 10:08:17;;;;;;;8.70;6.20;;;7.50;71.50;;;;;;5076856;28;20106;-77
2023/04/06 10:10:43;;;;;;;9.73;6.40;;;7.50;71.30;;;;;;5098005;28;20050;-77
2023/04/06 10:13:11;;;;;;;8.02;5.85;;;7.60;70.90;;;;;;5103391;28;20028;-77
2023/04/06 10:15:39;;;;;;;7.53;5.50;;;7.80;70.50;;;;;;5102699;28;20374;-77
2023/04/06 10:18:07;;;;;;;8.52;5.55;;;7.80;68.60;;;;;;5102557;28;20466;-77
2023/04/06 10:20:57;;;;;;;8.30;5.65;;;7.90;70.50;;;;;;5104118;28;20027;-77
2023/04/06 10:23:44;;;;;;;8.40;5.65;;;8.00;67.50;;;;;;5083846;28;20059;-77
2023/04/06 10:26:20;;;;;;;7.78;5.85;;;8.10;67.20;;;;;;5095493;28;20161;-78
2023/04/06 10:28:47;;;;;;;9.82;6.03;;;8.10;68.50;;;;;;5094697;28;20016;-78
2023/04/06 10:31:13;;;;;;;8.40;5.43;;;8.20;64.80;;;;;;5076850;28;20028;-78
2023/04/06 10:33:40;;;;;;;11.55;6.40;;;8.20;66.30;;;;;;5093921;28;20119;-78
2023/04/06 10:36:31;;;;;;;10.05;5.28;;;8.30;65.40;;;;;;5093518;28;20065;-77
2023/04/06 10:39:03;;;;;;;13.85;7.45;;;8.40;68.60;;;;;;5093770;28;20030;-77
2023/04/06 10:42:05;;;;;;;11.32;6.30;;;8.50;63.70;;;;;;5093382;28;20016;-76
2023/04/06 10:44:43;;;;;;;7.35;5.03;;;8.50;64.30;;;;;;5075243;28;20466;-76
2023/04/06 10:47:17;;;;;;;10.13;5.93;;;8.50;61.90;;;;;;5075267;28;20054;-76
2023/04/06 10:49:43;;;;;;;9.20;5.43;;;8.30;62.00;;;;;;5093620;28;20020;-76
2023/04/06 10:52:09;;;;;;;9.25;5.70;;;8.30;58.90;;;;;;5075492;28;20389;-77
2023/04/06 10:54:41;;;;;;;9.23;5.38;;;8.50;64.30;;;;;;5094014;28;20413;-77
2023/04/06 10:57:07;;;;;;;8.00;5.53;;;8.80;66.70;;;;;;5075324;28;20031;-77
2023/04/06 10:59:32;;;;;;;10.00;5.50;;;9.20;64.80;;;;;;5076078;28;20024;-77
2023/04/06 11:01:58;;;;;;;7.57;5.40;;;9.30;62.40;;;;;;5058830;28;20028;-77
2023/04/06 11:04:25;;;;;;;8.43;5.63;;;9.50;60.80;;;;;;5059141;28;20028;-77
2023/04/06 11:06:50;;;;;;;9.93;5.15;;;9.50;61.00;;;;;;5093611;28;20103;-77
2023/04/06 11:09:31;;;;;;;7.50;4.47;;;9.50;61.10;;;;;;5093680;28;20478;-77
2023/04/06 11:11:57;;;;;;;9.40;5.03;;;9.60;62.30;;;;;;5093533;28;20111;-77
2023/04/06 11:14:23;;;;;;;6.00;4.60;;;9.70;61.20;;;;;;5093813;28;20342;-77
2023/04/06 11:16:49;;;;;;;7.85;4.75;;;9.70;59.70;;;;;;5095722;28;20096;-78
2023/04/06 11:19:16;;;;;;;7.35;4.68;;;9.70;59.20;;;;;;5098204;28;20416;-77
2023/04/06 11:21:46;;;;;;;5.80;4.47;;;9.70;60.50;;;;;;5097788;28;20024;-77
2023/04/06 11:24:17;;;;;;;10.35;5.43;;;9.80;61.30;;;;;;5078912;28;20016;-77
2023/04/06 11:26:50;;;;;;;12.18;5.93;;;9.80;60.00;;;;;;5097282;28;20032;-77
2023/04/06 11:29:26;;;;;;;6.60;4.72;;;9.80;58.40;;;;;;5097242;28;20071;-77
2023/04/06 11:32:02;;;;;;;7.53;4.85;;;9.80;58.70;;;;;;5097375;28;20541;-77
2023/04/06 11:34:30;;;;;;;7.80;4.93;;;9.90;57.90;;;;;;5078954;28;20040;-77
2023/04/06 11:37:05;;;;;;;8.63;5.55;;;10.00;59.60;;;;;;5096759;28;20020;-76
2023/04/06 11:39:32;;;;;;;7.88;5.18;;;10.20;58.90;;;;;;5096763;28;20047;-77
2023/04/06 11:42:00;;;;;;;9.70;6.32;;;10.40;58.40;;;;;;5097049;28;20107;-77
2023/04/06 11:44:38;;;;;;;8.10;5.45;;;10.50;59.50;;;;;;5096707;28;20039;-77
2023/04/06 11:47:06;;;;;;;6.93;4.75;;;10.50;54.70;;;;;;5078772;28;20020;-77
2023/04/06 11:49:33;;;;;;;7.00;4.85;;;10.30;55.20;;;;;;5062328;28;20028;-77
2023/04/06 11:52:00;;;;;;;7.90;5.47;;;10.20;56.60;;;;;;5097665;28;20020;-78
2023/04/06 11:54:34;;;;;;;7.93;5.30;;;10.00;55.50;;;;;;5097064;28;20465;-77
2023/04/06 11:57:00;;;;;;;8.00;5.30;;;9.70;56.10;;;;;;5097022;28;20024;-77
2023/04/06 11:59:27;;;;;;;9.82;5.47;;;9.50;55.90;;;;;;5096479;28;20028;-77
2023/04/06 12:01:53;;;;;;;6.97;5.30;;;9.50;56.30;;;;;;5097157;28;20020;-77
2023/04/06 12:04:20;;;;;;;8.15;4.68;;;9.50;55.40;;;;;;5078867;28;20020;-77
2023/04/06 12:06:46;;;;;;;7.40;4.75;;;9.60;56.80;;;;;;5096908;28;20031;-77
2023/04/06 12:09:12;;;;;;;8.85;4.95;;;9.70;59.60;;;;;;5097062;28;20474;-77
2023/04/06 12:11:37;;;;;;;8.90;5.10;;;10.10;58.00;;;;;;5096673;28;20119;-77
2023/04/06 12:14:07;;;;;;;8.82;4.97;;;10.40;60.40;;;;;;5078625;28;20436;-77
2023/04/06 12:16:34;;;;;;;7.88;4.90;;;10.50;56.80;;;;;;5061942;28;20081;-77
2023/04/06 12:19:00;;;;;;;7.95;5.22;;;10.40;56.60;;;;;;5096442;28;20114;-77
2023/04/06 12:21:28;;;;;;;5.93;4.55;;;10.30;55.60;;;;;;5096345;28;20012;-77
2023/04/06 12:23:54;;;;;;;9.07;4.85;;;10.20;55.60;;;;;;5095969;28;20031;-77
2023/04/06 12:26:21;;;;;;;7.28;4.53;;;10.00;54.20;;;;;;5078563;28;20072;-77
2023/04/06 12:28:47;;;;;;;7.20;4.22;;;10.00;55.90;;;;;;5077081;28;20024;-78
2023/04/06 12:31:17;;;;;;;5.22;4.07;;;9.90;55.60;;;;;;5078966;28;20020;-78
2023/04/06 12:33:44;;;;;;;7.40;4.68;;;9.80;55.30;;;;;;5096519;28;20028;-77
2023/04/06 12:36:14;;;;;;;7.82;5.10;;;9.70;54.70;;;;;;5097363;28;20042;-78
2023/04/06 12:38:41;;;;;;;7.38;4.47;;;9.80;54.70;;;;;;5081570;28;20026;-78
2023/04/06 12:41:07;;;;;;;8.65;4.80;;;10.00;55.60;;;;;;5082137;28;20198;-78
2023/04/06 12:43:33;;;;;;;6.03;4.32;;;10.20;58.00;;;;;;5098775;28;20482;-78
2023/04/06 12:45:59;;;;;;;7.85;4.55;;;10.50;55.90;;;;;;5099993;28;20032;-78
2023/04/06 12:48:25;;;;;;;8.57;4.60;;;10.70;55.90;;;;;;5081434;28;20543;-77
2023/04/06 12:50:57;;;;;;;6.25;4.40;;;11.00;54.90;;;;;;5064968;28;20039;-77